Time;durP1;ratioP1;P1;durP2;ratioP2;P2;SDS_P1;SDS_P2;PMS_P1;PMS_P2;Temp;Humidity;BMP_temperature;BMP_pressure;BME280_temperature;BME280_humidity;BME280_pressure;Samples;Min_cycle;Max_cycle;Signal;HPM_P1;HPM_P2
2021/10/10 00:01:41;;;;;;;40.33;20.27;;;;;;;-0.43;100.00;99867.25;4151710;28;20050;-71
2021/10/10 00:03:42;;;;;;;31.02;19.60;;;;;;;-0.38;99.93;99871.91;4150770;28;20516;-71
2021/10/10 00:05:42;;;;;;;33.17;18.88;;;;;;;-0.36;99.52;99869.72;4153866;28;20556;-71
2021/10/10 00:07:43;;;;;;;32.72;20.35;;;;;;;-0.42;99.04;99868.91;4152757;28;20045;-71
2021/10/10 00:09:43;;;;;;;33.40;19.40;;;;;;;-0.46;98.50;99861.56;4153294;28;20084;-71
2021/10/10 00:11:43;;;;;;;31.55;19.75;;;;;;;-0.41;99.09;99869.75;4152487;28;20049;-71
2021/10/10 00:13:44;;;;;;;33.35;19.40;;;;;;;-0.34;99.01;99862.09;4151772;28;20096;-71
2021/10/10 00:15:44;;;;;;;33.45;19.02;;;;;;;-0.19;98.71;99859.38;4153242;28;20117;-71
2021/10/10 00:17:44;;;;;;;29.25;17.02;;;;;;;-0.15;97.58;99863.19;4152251;28;20374;-71
2021/10/10 00:19:45;;;;;;;33.63;19.65;;;;;;;-0.18;97.60;99863.72;4152405;28;20041;-71
2021/10/10 00:21:45;;;;;;;38.90;20.58;;;;;;;-0.21;97.73;99864.28;4152128;28;20052;-71
2021/10/10 00:23:46;;;;;;;50.70;21.40;;;;;;;-0.09;98.34;99869.41;4152275;28;20108;-71
2021/10/10 00:25:46;;;;;;;33.13;17.27;;;;;;;-0.11;98.17;99872.41;4153521;28;20052;-71
2021/10/10 00:27:46;;;;;;;34.78;19.63;;;;;;;-0.15;97.70;99867.81;4152331;28;20342;-71
2021/10/10 00:29:47;;;;;;;35.95;21.17;;;;;;;-0.15;98.38;99870.53;4152950;28;20045;-71
2021/10/10 00:31:47;;;;;;;40.05;22.73;;;;;;;-0.10;98.69;99865.88;4152085;28;20474;-71
2021/10/10 00:33:48;;;;;;;36.42;19.92;;;;;;;-0.19;98.66;99870.25;4152464;28;20053;-71
2021/10/10 00:35:48;;;;;;;31.70;20.30;;;;;;;-0.12;98.93;99868.06;4152426;28;20111;-71
2021/10/10 00:37:48;;;;;;;31.05;19.38;;;;;;;-0.22;98.97;99867.28;4151832;28;20466;-71
2021/10/10 00:39:49;;;;;;;29.83;17.90;;;;;;;-0.30;98.69;99864.00;4153381;28;20046;-71
2021/10/10 00:41:49;;;;;;;28.73;18.73;;;;;;;-0.43;98.53;99866.44;4152300;28;20052;-71
2021/10/10 00:43:49;;;;;;;28.45;16.67;;;;;;;-0.50;98.63;99863.19;4150854;28;20467;-71
2021/10/10 00:45:50;;;;;;;44.42;21.58;;;;;;;-0.65;98.83;99856.66;4152037;28;20053;-71
2021/10/10 00:47:51;;;;;;;41.70;21.75;;;;;;;-0.67;99.31;99856.09;4153211;28;20048;-71
2021/10/10 00:49:51;;;;;;;36.63;19.40;;;;;;;-0.71;99.65;99860.47;4145876;28;20048;-71
2021/10/10 00:51:51;;;;;;;31.67;17.35;;;;;;;-0.77;99.82;99852.56;4152086;28;20108;-71
2021/10/10 00:53:52;;;;;;;62.00;23.08;;;;;;;-0.82;100.00;99853.41;4134593;28;20042;-71
2021/10/10 00:55:53;;;;;;;30.75;18.40;;;;;;;-0.80;100.00;99856.66;4150728;28;20133;-71
2021/10/10 00:57:53;;;;;;;39.10;20.88;;;;;;;-0.74;100.00;99844.72;4146900;28;20060;-71
2021/10/10 00:59:54;;;;;;;35.28;19.55;;;;;;;-0.63;100.00;99854.50;4148542;28;20889;-71
2021/10/10 01:01:54;;;;;;;31.92;18.55;;;;;;;-0.63;100.00;99854.50;4151816;28;20067;-71
2021/10/10 01:03:54;;;;;;;39.20;19.42;;;;;;;-0.61;100.00;99843.34;4151839;28;20092;-71
2021/10/10 01:05:55;;;;;;;30.77;18.77;;;;;;;-0.60;100.00;99844.97;4132803;28;20053;-71
2021/10/10 01:07:55;;;;;;;36.22;19.50;;;;;;;-0.49;100.00;99856.69;4167849;28;20130;-71
2021/10/10 01:09:57;;;;;;;35.47;19.80;;;;;;;-0.48;100.00;99844.72;4151971;28;20050;-71
2021/10/10 01:11:58;;;;;;;35.72;20.30;;;;;;;-0.47;100.00;99851.78;4145281;28;20046;-71
2021/10/10 01:13:58;;;;;;;30.85;18.42;;;;;;;-0.53;100.00;99847.44;4148867;28;20072;-71
2021/10/10 01:15:58;;;;;;;30.83;19.20;;;;;;;-0.54;100.00;99841.16;4151284;28;20053;-71
2021/10/10 01:17:59;;;;;;;37.70;19.70;;;;;;;-0.57;100.00;99849.88;4151260;28;20046;-71
2021/10/10 01:19:59;;;;;;;40.58;21.25;;;;;;;-0.59;100.00;99841.97;4151479;28;20064;-71
2021/10/10 01:22:00;;;;;;;34.55;18.75;;;;;;;-0.66;100.00;99843.34;4152909;28;20103;-71
2021/10/10 01:24:00;;;;;;;30.27;17.90;;;;;;;-0.64;100.00;99847.44;4151476;28;20055;-71
2021/10/10 01:26:01;;;;;;;27.95;17.90;;;;;;;-0.70;100.00;99837.63;4146318;28;20053;-71
2021/10/10 01:28:01;;;;;;;39.22;19.63;;;;;;;-0.74;100.00;99842.00;4151984;28;20033;-71
2021/10/10 01:30:01;;;;;;;28.17;17.77;;;;;;;-0.76;100.00;99835.16;4151907;28;20037;-71
2021/10/10 01:32:02;;;;;;;129.82;28.10;;;;;;;-0.77;100.00;99830.81;4151599;28;20064;-71
2021/10/10 01:34:02;;;;;;;34.63;19.08;;;;;;;-0.79;100.00;99836.53;4150626;28;20029;-71
2021/10/10 01:36:03;;;;;;;30.08;18.25;;;;;;;-0.78;100.00;99840.06;4152971;28;20037;-71
2021/10/10 01:38:04;;;;;;;31.75;18.70;;;;;;;-0.79;100.00;99835.72;4149830;28;20033;-71
2021/10/10 01:40:05;;;;;;;45.22;20.73;;;;;;;-0.73;100.00;99842.81;4150337;28;20091;-71
2021/10/10 01:42:05;;;;;;;46.33;20.20;;;;;;;-0.78;100.00;99826.47;4152216;28;20075;-71
2021/10/10 01:44:12;;;;;;;34.75;19.10;;;;;;;-0.78;100.00;99830.00;4149396;28;20116;-71
2021/10/10 01:46:12;;;;;;;31.05;18.08;;;;;;;-0.76;100.00;99837.88;4151349;28;20377;-71
2021/10/10 01:48:12;;;;;;;41.00;20.70;;;;;;;-0.78;100.00;99827.28;4151374;28;20034;-71
2021/10/10 01:50:13;;;;;;;26.88;15.95;;;;;;;-0.75;100.00;99825.94;4152458;28;20466;-71
2021/10/10 01:52:13;;;;;;;58.65;20.00;;;;;;;-0.72;100.00;99834.38;4150701;28;20038;-71
2021/10/10 01:54:14;;;;;;;63.10;21.70;;;;;;;-0.76;100.00;99827.84;4150776;28;20030;-71
2021/10/10 01:56:16;;;;;;;25.50;17.42;;;;;;;-0.72;100.00;99818.06;4152037;28;20095;-71
2021/10/10 01:58:16;;;;;;;34.08;17.65;;;;;;;-0.77;100.00;99823.50;4152347;28;20037;-71
2021/10/10 02:00:16;;;;;;;46.72;18.23;;;;;;;-0.77;100.00;99822.69;4151050;28;20450;-71
2021/10/10 02:02:17;;;;;;;45.60;19.65;;;;;;;-0.80;100.00;99823.22;4150882;28;20033;-71
2021/10/10 02:04:17;;;;;;;65.13;19.27;;;;;;;-0.83;100.00;99830.00;4152110;28;20037;-71
2021/10/10 02:06:18;;;;;;;49.22;18.20;;;;;;;-0.83;100.00;99823.75;4150772;28;20091;-71
2021/10/10 02:08:18;;;;;;;23.17;15.75;;;;;;;-0.85;100.00;99821.31;4151917;28;20216;-71
2021/10/10 02:10:19;;;;;;;40.20;19.83;;;;;;;-0.84;100.00;99828.38;4152757;28;20050;-71
2021/10/10 02:12:19;;;;;;;41.67;17.60;;;;;;;-0.82;100.00;99823.50;4149979;28;20458;-71
2021/10/10 02:14:19;;;;;;;51.78;21.73;;;;;;;-0.88;100.00;99822.66;4150558;28;20036;-71
2021/10/10 02:16:20;;;;;;;38.47;17.13;;;;;;;-0.88;100.00;99822.66;4151613;28;23093;-71
2021/10/10 02:18:20;;;;;;;35.95;17.23;;;;;;;-0.90;100.00;99819.41;4151449;28;20049;-71
2021/10/10 02:20:20;;;;;;;25.02;15.18;;;;;;;-0.90;100.00;99813.16;4150765;28;20480;-71
2021/10/10 02:22:21;;;;;;;24.27;15.20;;;;;;;-0.89;100.00;99812.06;4151461;28;20376;-71
2021/10/10 02:24:21;;;;;;;25.33;15.70;;;;;;;-0.90;100.00;99818.59;4151794;28;20064;-71
2021/10/10 02:26:21;;;;;;;37.10;13.95;;;;;;;-0.93;100.00;99816.41;4150269;28;20041;-71
2021/10/10 02:28:22;;;;;;;25.55;16.38;;;;;;;-0.91;100.00;99822.38;4150584;28;20305;-71
2021/10/10 02:30:22;;;;;;;28.05;15.88;;;;;;;-0.84;100.00;99817.50;4151502;28;20042;-71
2021/10/10 02:32:23;;;;;;;23.17;14.13;;;;;;;-0.81;100.00;99818.88;4151543;28;20375;-71
2021/10/10 02:34:23;;;;;;;18.50;13.48;;;;;;;-0.85;100.00;99810.44;4150375;28;20046;-71
2021/10/10 02:36:24;;;;;;;22.40;14.88;;;;;;;-0.87;100.00;99815.34;4147712;28;20042;-71
2021/10/10 02:38:24;;;;;;;22.25;14.82;;;;;;;-0.91;100.00;99815.06;4150731;28;20045;-71
2021/10/10 02:40:24;;;;;;;19.23;13.35;;;;;;;-0.96;100.00;99822.38;4150613;28;20049;-71
2021/10/10 02:42:25;;;;;;;26.60;15.68;;;;;;;-1.02;100.00;99815.31;4151519;28;20378;-71
2021/10/10 02:44:26;;;;;;;23.90;15.60;;;;;;;-1.10;100.00;99815.84;4149603;28;20045;-71
2021/10/10 02:46:27;;;;;;;17.50;13.00;;;;;;;-1.15;100.00;99801.19;4154755;28;20477;-71
2021/10/10 02:48:27;;;;;;;20.02;13.32;;;;;;;-1.18;100.00;99803.59;4154866;28;20483;-71
2021/10/10 02:50:27;;;;;;;28.17;16.88;;;;;;;-1.20;100.00;99805.78;4154340;28;20084;-71
2021/10/10 02:52:28;;;;;;;32.70;19.05;;;;;;;-1.27;100.00;99803.31;4154693;28;20048;-71
2021/10/10 02:54:28;;;;;;;38.92;19.08;;;;;;;-1.26;100.00;99798.69;4153457;28;20309;-71
2021/10/10 02:56:28;;;;;;;38.83;18.88;;;;;;;-1.26;100.00;99804.94;4154054;28;20034;-71
2021/10/10 02:58:29;;;;;;;43.15;19.20;;;;;;;-1.30;100.00;99800.31;4153833;28;20041;-71
2021/10/10 03:00:30;;;;;;;39.95;19.40;;;;;;;-1.36;100.00;99783.19;4154314;28;20420;-71
2021/10/10 03:02:30;;;;;;;30.38;16.30;;;;;;;-1.37;100.00;99797.03;4154515;28;20038;-71
2021/10/10 03:04:30;;;;;;;28.08;17.75;;;;;;;-1.31;100.00;99794.06;4152470;28;20044;-71
2021/10/10 03:06:31;;;;;;;26.48;15.90;;;;;;;-1.28;100.00;99796.25;4154211;28;20037;-71
2021/10/10 03:08:31;;;;;;;32.95;16.48;;;;;;;-1.30;100.00;99792.19;4153414;28;20432;-71
2021/10/10 03:10:31;;;;;;;26.00;17.00;;;;;;;-1.29;100.00;99785.66;4153891;28;20041;-71
2021/10/10 03:12:32;;;;;;;49.35;19.15;;;;;;;-1.19;100.00;99789.19;4152907;28;20092;-71
2021/10/10 03:14:32;;;;;;;28.30;16.30;;;;;;;-1.06;100.00;99787.06;4153470;28;20108;-71
2021/10/10 03:16:33;;;;;;;27.90;16.08;;;;;;;-1.00;100.00;99794.13;4154288;28;20099;-71
2021/10/10 03:18:33;;;;;;;29.25;16.88;;;;;;;-0.89;100.00;99793.06;4153415;28;20186;-71
2021/10/10 03:20:33;;;;;;;28.13;15.25;;;;;;;-0.95;100.00;99788.69;4153898;28;20041;-71
2021/10/10 03:22:34;;;;;;;32.92;16.90;;;;;;;-0.98;100.00;99787.34;4153053;28;20041;-71
2021/10/10 03:24:34;;;;;;;34.45;16.17;;;;;;;-1.03;100.00;99792.75;4152989;28;20037;-71
2021/10/10 03:26:34;;;;;;;40.75;16.42;;;;;;;-1.02;100.00;99788.97;4154132;28;20049;-71
2021/10/10 03:28:35;;;;;;;29.30;15.82;;;;;;;-1.01;100.00;99785.16;4153814;28;20528;-71
2021/10/10 03:30:35;;;;;;;37.70;17.15;;;;;;;-0.95;100.00;99777.84;4153856;28;20049;-71
2021/10/10 03:32:35;;;;;;;52.42;17.30;;;;;;;-0.91;100.00;99782.47;4152790;28;20052;-71
2021/10/10 03:34:36;;;;;;;94.45;19.40;;;;;;;-0.90;100.00;99781.38;4153426;28;20045;-71
2021/10/10 03:36:36;;;;;;;35.67;15.48;;;;;;;-0.88;100.00;99778.38;4153104;28;20389;-71
2021/10/10 03:38:37;;;;;;;35.90;17.02;;;;;;;-0.92;100.00;99777.28;4153022;28;20438;-71
2021/10/10 03:40:37;;;;;;;31.58;16.83;;;;;;;-0.89;100.00;99777.56;4153882;28;20060;-71
2021/10/10 03:42:38;;;;;;;30.10;15.73;;;;;;;-0.91;100.00;99776.19;4153364;28;20740;-71
2021/10/10 03:44:38;;;;;;;23.83;14.77;;;;;;;-0.86;100.00;99782.44;4153049;28;20341;-71
2021/10/10 03:46:39;;;;;;;22.02;13.38;;;;;;;-0.88;100.00;99770.22;4152830;28;20048;-70
2021/10/10 03:48:39;;;;;;;31.33;14.52;;;;;;;-0.97;99.86;99775.38;4153790;28;20041;-71
2021/10/10 03:50:39;;;;;;;64.82;18.35;;;;;;;-1.07;99.78;99777.28;4153490;28;20030;-71
2021/10/10 03:52:41;;;;;;;34.45;15.68;;;;;;;-1.08;100.00;99771.00;4151592;28;20050;-71
2021/10/10 03:57:01;;;;;;;37.75;15.55;;;;;;;-1.15;100.00;99773.19;4153226;28;20140;-70
2021/10/10 03:59:01;;;;;;;26.00;14.57;;;;;;;-1.22;100.00;99775.34;4152797;28;20045;-71
2021/10/10 04:01:02;;;;;;;25.55;14.45;;;;;;;-1.20;100.00;99774.00;4154227;28;20129;-71
2021/10/10 04:03:05;;;;;;;27.63;14.85;;;;;;;-1.19;100.00;99772.09;4153272;28;20509;-71
2021/10/10 04:05:15;;;;;;;23.48;14.15;;;;;;;-1.13;100.00;99776.47;4151978;28;20045;-71
2021/10/10 04:07:15;;;;;;;27.67;14.65;;;;;;;-1.16;100.00;99769.66;4146389;28;20651;-71
2021/10/10 04:09:16;;;;;;;24.08;12.95;;;;;;;-1.21;100.00;99775.09;4152902;28;20046;-70
2021/10/10 04:11:16;;;;;;;22.40;13.73;;;;;;;-1.23;100.00;99766.41;4152609;28;20482;-70
2021/10/10 04:13:16;;;;;;;23.42;13.80;;;;;;;-1.24;100.00;99772.06;4151815;28;20053;-70
2021/10/10 04:15:17;;;;;;;21.95;12.95;;;;;;;-1.20;100.00;99759.59;4153913;28;20444;-70
2021/10/10 04:17:17;;;;;;;31.52;14.50;;;;;;;-1.17;100.00;99765.28;4152377;28;20476;-71
2021/10/10 04:19:18;;;;;;;38.67;15.88;;;;;;;-1.25;100.00;99765.00;4152682;28;20048;-71
2021/10/10 04:21:18;;;;;;;27.05;14.73;;;;;;;-1.29;99.77;99770.19;4153463;28;20572;-71
2021/10/10 04:23:18;;;;;;;28.52;12.82;;;;;;;-1.30;100.00;99760.41;4151750;28;20394;-71
2021/10/10 04:25:19;;;;;;;35.80;14.82;;;;;;;-1.31;99.91;99766.13;4152536;28;20389;-71
2021/10/10 04:27:19;;;;;;;22.98;13.50;;;;;;;-1.33;99.86;99765.53;4152196;28;20056;-71
2021/10/10 04:29:20;;;;;;;21.80;12.95;;;;;;;-1.34;100.00;99763.91;4153754;28;20212;-71
2021/10/10 04:31:20;;;;;;;25.40;13.38;;;;;;;-1.39;99.80;99767.44;4153072;28;20300;-71
2021/10/10 04:33:20;;;;;;;33.75;14.68;;;;;;;-1.34;100.00;99763.91;4151636;28;20050;-71
2021/10/10 04:35:21;;;;;;;24.25;13.38;;;;;;;-1.37;100.00;99762.56;4153422;28;20603;-71
2021/10/10 04:37:21;;;;;;;35.72;14.75;;;;;;;-1.35;100.00;99770.44;4150994;28;20054;-71
2021/10/10 04:39:21;;;;;;;23.10;13.30;;;;;;;-1.39;100.00;99767.44;4152231;28;20053;-71
2021/10/10 04:41:22;;;;;;;19.27;12.43;;;;;;;-1.48;100.00;99759.00;4151941;28;20052;-71
2021/10/10 04:43:22;;;;;;;32.85;13.35;;;;;;;-1.53;100.00;99759.00;4152503;28;20111;-71
2021/10/10 04:45:22;;;;;;;36.63;14.15;;;;;;;-1.52;100.00;99757.09;4152021;28;20053;-71
2021/10/10 04:47:23;;;;;;;28.83;14.10;;;;;;;-1.50;100.00;99763.06;4152011;28;20042;-71
2021/10/10 04:49:23;;;;;;;19.13;12.18;;;;;;;-1.55;100.00;99750.31;4153360;28;20048;-71
2021/10/10 04:51:24;;;;;;;44.45;13.43;;;;;;;-1.60;100.00;99754.91;4152161;28;21189;-71
2021/10/10 04:53:24;;;;;;;36.75;13.30;;;;;;;-1.55;100.00;99758.44;4151290;28;20396;-70
2021/10/10 04:55:25;;;;;;;26.95;13.85;;;;;;;-1.49;100.00;99753.81;4152316;28;20827;-70
2021/10/10 04:57:25;;;;;;;43.08;15.82;;;;;;;-1.51;100.00;99756.00;4153333;28;20373;-71
2021/10/10 04:59:25;;;;;;;29.55;15.00;;;;;;;-1.48;100.00;99758.19;4151710;28;20045;-71
2021/10/10 05:01:26;;;;;;;28.23;15.00;;;;;;;-1.50;100.00;99757.63;4151980;28;20052;-71
2021/10/10 05:03:26;;;;;;;30.45;13.27;;;;;;;-1.62;100.00;99757.06;4152451;28;20460;-70
2021/10/10 05:05:27;;;;;;;23.02;14.77;;;;;;;-1.61;100.00;99756.78;4151295;28;20060;-71
2021/10/10 05:07:27;;;;;;;22.67;14.45;;;;;;;-1.65;100.00;99752.19;4151595;28;20301;-71
2021/10/10 05:09:27;;;;;;;36.22;15.02;;;;;;;-1.70;100.00;99756.50;4151948;28;20049;-71
2021/10/10 05:11:28;;;;;;;25.25;15.18;;;;;;;-1.66;100.00;99755.94;4151414;28;20053;-70
2021/10/10 05:13:28;;;;;;;23.13;14.43;;;;;;;-1.61;100.00;99751.38;4150934;28;20042;-70
2021/10/10 05:15:29;;;;;;;20.75;12.88;;;;;;;-1.59;100.00;99764.66;4151519;28;20046;-70
2021/10/10 05:17:29;;;;;;;42.25;15.43;;;;;;;-1.62;100.00;99752.44;4148374;28;20060;-70
2021/10/10 05:19:29;;;;;;;22.23;12.85;;;;;;;-1.62;100.00;99762.50;4151317;28;20305;-71
2021/10/10 05:21:30;;;;;;;17.65;11.60;;;;;;;-1.71;100.00;99759.47;4151377;28;20494;-70
2021/10/10 05:23:30;;;;;;;32.78;15.80;;;;;;;-1.76;100.00;99756.75;4150107;28;20038;-70
2021/10/10 05:25:31;;;;;;;24.70;13.48;;;;;;;-1.81;100.00;99749.41;4150129;28;20061;-70
2021/10/10 05:27:31;;;;;;;24.95;15.05;;;;;;;-1.88;100.00;99765.13;4150610;28;20486;-70
2021/10/10 05:29:31;;;;;;;18.17;12.05;;;;;;;-1.95;100.00;99750.97;4150988;28;20046;-70
2021/10/10 05:31:32;;;;;;;21.15;13.52;;;;;;;-2.00;100.00;99759.09;4153077;28;20065;-70
2021/10/10 05:33:32;;;;;;;20.65;12.18;;;;;;;-2.05;100.00;99759.06;4149048;28;20502;-70
2021/10/10 05:35:33;;;;;;;29.63;13.57;;;;;;;-2.06;100.00;99758.25;4151317;28;20034;-70
2021/10/10 05:37:33;;;;;;;21.77;13.00;;;;;;;-2.11;100.00;99760.13;4152872;28;20088;-70
2021/10/10 05:39:33;;;;;;;18.20;12.13;;;;;;;-2.14;100.00;99758.75;4150799;28;20045;-70
2021/10/10 05:41:34;;;;;;;26.98;14.82;;;;;;;-2.04;100.00;99764.22;4151221;28;20397;-70
2021/10/10 05:43:34;;;;;;;31.75;16.30;;;;;;;-1.86;100.00;99770.28;4150722;28;20042;-70
2021/10/10 05:45:35;;;;;;;32.03;16.33;;;;;;;-1.82;100.00;99768.66;4150175;28;20045;-70
2021/10/10 05:47:35;;;;;;;26.73;15.05;;;;;;;-1.72;100.00;99774.94;4149298;28;20568;-70
2021/10/10 05:49:36;;;;;;;30.20;15.73;;;;;;;-1.72;100.00;99771.41;4150720;28;20038;-70
2021/10/10 05:51:36;;;;;;;38.75;20.45;;;;;;;-1.70;100.00;99777.41;4152734;28;20041;-70
2021/10/10 05:53:38;;;;;;;31.27;18.55;;;;;;;-1.64;100.00;99765.47;4149664;28;20057;-70
2021/10/10 05:55:39;;;;;;;43.50;23.58;;;;;;;-1.62;100.00;99767.91;4146650;28;20481;-70
2021/10/10 05:57:48;;;;;;;52.25;24.67;;;;;;;-1.61;100.00;99767.66;4147254;28;20052;-70
2021/10/10 05:59:51;;;;;;;50.10;25.95;;;;;;;-1.49;100.00;99768.25;4149101;28;20041;-70
2021/10/10 06:01:52;;;;;;;71.95;31.20;;;;;;;-1.52;100.00;99768.75;4146203;28;20052;-70
2021/10/10 06:03:52;;;;;;;49.67;25.92;;;;;;;-1.39;100.00;99775.59;4147541;28;20045;-70
2021/10/10 06:05:52;;;;;;;47.55;24.23;;;;;;;-1.41;100.00;99766.88;4147840;28;20053;-70
2021/10/10 06:07:53;;;;;;;42.35;21.13;;;;;;;-1.45;100.00;99776.66;4148081;28;20053;-70
2021/10/10 06:09:54;;;;;;;46.60;23.45;;;;;;;-1.45;100.00;99769.31;4148669;28;20437;-70
2021/10/10 06:11:55;;;;;;;44.30;19.60;;;;;;;-1.51;100.00;99766.88;4147064;28;20053;-70
2021/10/10 06:13:55;;;;;;;36.85;18.83;;;;;;;-1.42;100.00;99773.41;4136634;28;20046;-70
2021/10/10 06:15:56;;;;;;;41.40;19.27;;;;;;;-1.42;100.00;99768.78;4147948;28;20053;-70
2021/10/10 06:17:56;;;;;;;35.33;17.60;;;;;;;-1.27;100.00;99767.19;4145972;28;20038;-70
2021/10/10 06:19:56;;;;;;;29.70;16.00;;;;;;;-1.26;99.77;99771.53;4148111;28;20053;-70
2021/10/10 06:21:57;;;;;;;30.65;15.95;;;;;;;-1.18;99.70;99773.72;4150833;28;20108;-70
2021/10/10 06:23:57;;;;;;;28.33;14.75;;;;;;;-1.05;99.04;99775.94;4150685;28;20045;-70
2021/10/10 06:25:57;;;;;;;22.58;13.63;;;;;;;-1.04;98.68;99777.56;4150734;28;20041;-70
2021/10/10 06:27:58;;;;;;;24.02;12.95;;;;;;;-1.07;98.21;99769.94;4151637;28;20050;-70
2021/10/10 06:29:58;;;;;;;36.55;14.80;;;;;;;-1.11;98.72;99763.41;4148978;28;20519;-70
2021/10/10 06:31:59;;;;;;;27.08;12.85;;;;;;;-1.09;98.47;99769.38;4151415;28;20064;-70
2021/10/10 06:33:59;;;;;;;29.33;13.45;;;;;;;-1.15;98.32;99771.31;4150921;28;20099;-70
2021/10/10 06:35:59;;;;;;;33.30;13.68;;;;;;;-1.14;98.97;99767.50;4150742;28;20050;-70
2021/10/10 06:38:00;;;;;;;20.40;12.63;;;;;;;-1.16;98.78;99776.97;4154174;28;20382;-70
2021/10/10 06:40:00;;;;;;;30.17;13.20;;;;;;;-1.20;99.27;99763.13;4154770;28;20049;-70
2021/10/10 06:42:05;;;;;;;37.05;13.20;;;;;;;-1.13;98.89;99771.84;4154487;28;20539;-71
2021/10/10 06:44:08;;;;;;;23.38;14.07;;;;;;;-1.07;99.01;99778.09;4152273;28;20087;-71
2021/10/10 06:46:08;;;;;;;31.17;19.33;;;;;;;-1.06;99.14;99768.88;4154322;28;20444;-70
2021/10/10 06:48:08;;;;;;;31.33;17.15;;;;;;;-1.11;99.17;99778.91;4154459;28;20041;-70
2021/10/10 06:50:09;;;;;;;21.00;13.27;;;;;;;-1.21;98.89;99775.09;4154360;28;20037;-70
2021/10/10 06:52:09;;;;;;;37.97;17.92;;;;;;;-1.21;99.40;99775.09;4154022;28;20037;-70
2021/10/10 06:54:10;;;;;;;67.43;28.20;;;;;;;-1.26;100.00;99782.41;4153233;28;20029;-70
2021/10/10 06:56:10;;;;;;;39.90;23.25;;;;;;;-1.29;99.99;99777.50;4154280;28;20037;-70
2021/10/10 06:58:10;;;;;;;51.55;25.58;;;;;;;-1.32;100.00;99780.78;4152280;28;20033;-70
2021/10/10 07:00:11;;;;;;;36.58;20.52;;;;;;;-1.34;100.00;99778.31;4153703;28;20281;-70
2021/10/10 07:02:12;;;;;;;45.47;23.73;;;;;;;-1.19;100.00;99781.06;4153462;28;20083;-70
2021/10/10 07:04:12;;;;;;;47.88;26.50;;;;;;;-1.08;100.00;99779.16;4152811;28;20033;-70
2021/10/10 07:06:12;;;;;;;46.85;23.35;;;;;;;-0.98;100.00;99781.09;4153665;28;20033;-70
2021/10/10 07:08:13;;;;;;;32.65;20.00;;;;;;;-0.89;100.00;99777.56;4153466;28;20033;-71
2021/10/10 07:10:13;;;;;;;26.08;16.83;;;;;;;-0.82;100.00;99788.19;4155310;28;20029;-71
2021/10/10 07:12:14;;;;;;;25.00;14.40;;;;;;;-0.84;99.62;99776.75;4152036;28;20037;-70
2021/10/10 07:14:14;;;;;;;25.63;14.43;;;;;;;-0.80;99.80;99779.75;4151155;28;20045;-70
2021/10/10 07:16:15;;;;;;;24.20;13.60;;;;;;;-0.83;99.50;99782.97;4154831;28;20037;-70
2021/10/10 07:18:20;;;;;;;30.30;16.60;;;;;;;-0.81;100.00;99772.69;4152172;28;20714;-70
2021/10/10 07:20:27;;;;;;;28.55;17.45;;;;;;;-0.73;100.00;99781.09;4152748;28;20057;-70
2021/10/10 07:22:33;;;;;;;31.02;17.48;;;;;;;-0.66;100.00;99776.22;4153418;28;20050;-70
2021/10/10 07:26:52;;;;;;;29.90;16.88;;;;;;;-0.55;99.56;99778.91;4153356;28;20048;-70
2021/10/10 07:28:52;;;;;;;22.58;13.93;;;;;;;-0.47;99.47;99779.19;4153221;28;20435;-70
2021/10/10 07:30:54;;;;;;;28.15;14.35;;;;;;;-0.34;98.88;99786.75;4153490;28;20513;-70
2021/10/10 07:32:54;;;;;;;21.17;12.63;;;;;;;-0.25;98.28;99784.31;4152740;28;20481;-70
2021/10/10 07:34:55;;;;;;;23.90;12.82;;;;;;;-0.20;98.60;99784.31;4153670;28;20360;-70
2021/10/10 07:36:55;;;;;;;19.30;11.90;;;;;;;-0.24;98.42;99772.34;4147259;28;20530;-70
2021/10/10 07:38:57;;;;;;;24.60;13.48;;;;;;;-0.22;98.79;99778.31;4151902;28;20095;-70
2021/10/10 07:40:59;;;;;;;18.83;12.02;;;;;;;-0.19;99.00;99777.75;4153171;28;20472;-70
2021/10/10 07:43:00;;;;;;;18.13;11.95;;;;;;;-0.15;98.66;99784.31;4151467;28;20080;-70
2021/10/10 07:45:17;;;;;;;18.10;12.10;;;;;;;-0.13;99.52;99784.03;4151092;28;20084;-70
2021/10/10 07:49:27;;;;;;;19.20;12.00;;;;;;;-0.03;99.02;99794.88;4153592;28;20033;-70
2021/10/10 07:51:28;;;;;;;21.33;12.93;;;;;;;0.02;99.04;99781.25;4153183;28;20072;-70
2021/10/10 07:53:29;;;;;;;21.35;13.18;;;;;;;0.04;99.32;99776.34;4150164;28;20864;-70
2021/10/10 07:55:31;;;;;;;17.30;11.25;;;;;;;0.06;99.39;99784.22;4152959;28;20057;-70
2021/10/10 07:57:31;;;;;;;17.70;12.33;;;;;;;0.02;99.61;99781.25;4154634;28;20423;-70
2021/10/10 07:59:32;;;;;;;18.08;11.88;;;;;;;0.00;99.96;99780.72;4152060;28;20034;-70
2021/10/10 08:01:32;;;;;;;21.40;12.10;;;;;;;0.01;100.00;99774.19;4132422;28;20046;-70
2021/10/10 08:03:32;;;;;;;22.98;13.77;;;;;;;0.02;100.00;99773.09;4153147;28;20049;-70
2021/10/10 08:05:40;;;;;;;24.83;14.80;;;;;;;0.09;99.99;99770.09;4153044;28;20054;-70
2021/10/10 08:07:41;;;;;;;20.65;13.35;;;;;;;0.19;99.24;99764.59;4146023;28;20051;-70
2021/10/10 08:09:41;;;;;;;22.10;14.30;;;;;;;0.30;98.92;99768.09;4148274;28;20049;-70
2021/10/10 08:11:42;;;;;;;20.70;14.10;;;;;;;0.41;98.45;99770.47;4147654;28;20398;-70
2021/10/10 08:13:43;;;;;;;31.17;17.88;;;;;;;0.51;98.01;99773.16;4148290;28;20073;-70
2021/10/10 08:15:43;;;;;;;32.08;18.17;;;;;;;0.57;97.88;99773.94;4156347;28;20433;-70
2021/10/10 08:17:43;;;;;;;34.30;19.98;;;;;;;0.62;97.80;99764.94;4151784;28;20042;-70
2021/10/10 08:19:44;;;;;;;29.60;18.13;;;;;;;0.70;98.29;99775.25;4153941;28;20057;-70
2021/10/10 08:21:44;;;;;;;23.98;15.90;;;;;;;0.75;98.23;99772.50;4152951;28;20424;-70
2021/10/10 08:23:45;;;;;;;28.83;18.15;;;;;;;0.81;97.94;99760.44;4151851;28;20053;-70
2021/10/10 08:25:45;;;;;;;30.60;19.65;;;;;;;0.89;98.65;99767.22;4153828;28;20061;-70
2021/10/10 08:27:46;;;;;;;25.35;16.73;;;;;;;0.95;98.27;99766.91;4151936;28;20351;-70
2021/10/10 08:29:48;;;;;;;24.00;16.27;;;;;;;1.02;98.67;99761.94;4151791;28;20045;-70
2021/10/10 08:31:48;;;;;;;27.25;17.35;;;;;;;1.13;99.96;99763.50;4153090;28;20461;-70
2021/10/10 08:33:49;;;;;;;25.67;17.75;;;;;;;1.22;100.00;99765.59;4139188;28;20046;-70
2021/10/10 08:35:50;;;;;;;26.90;18.83;;;;;;;1.26;99.88;99763.97;4151192;28;20049;-70
2021/10/10 08:37:51;;;;;;;25.10;17.38;;;;;;;1.33;99.87;99767.97;4152376;28;20069;-70
2021/10/10 08:39:51;;;;;;;21.50;15.05;;;;;;;1.36;99.95;99767.41;4152896;28;20065;-70
2021/10/10 08:41:58;;;;;;;20.02;14.60;;;;;;;1.39;99.93;99760.56;4152032;28;20583;-70
2021/10/10 08:43:58;;;;;;;21.40;15.05;;;;;;;1.49;99.93;99760.47;4151383;28;20089;-70
2021/10/10 08:46:03;;;;;;;21.85;13.68;;;;;;;1.57;100.00;99759.03;4135043;28;20054;-70
2021/10/10 08:48:04;;;;;;;23.20;13.93;;;;;;;1.64;99.93;99762.22;4152419;28;20053;-71
2021/10/10 08:50:05;;;;;;;23.23;15.15;;;;;;;1.71;99.82;99761.91;4151862;28;20495;-70
2021/10/10 08:52:07;;;;;;;22.73;13.80;;;;;;;1.74;99.51;99764.88;4151842;28;20048;-71
2021/10/10 08:54:07;;;;;;;20.00;12.73;;;;;;;1.82;99.74;99772.44;4151335;28;20041;-70
2021/10/10 08:56:08;;;;;;;18.27;11.98;;;;;;;1.87;99.40;99766.09;4151713;28;20034;-70
2021/10/10 08:58:09;;;;;;;18.25;11.50;;;;;;;1.92;99.46;99768.78;4152498;28;20722;-70
2021/10/10 09:00:29;;;;;;;17.35;11.50;;;;;;;1.99;99.46;99766.53;4150035;28;20426;-70
2021/10/10 09:02:32;;;;;;;23.77;14.30;;;;;;;2.07;99.63;99768.63;4151613;28;20567;-70
2021/10/10 09:04:39;;;;;;;22.55;12.60;;;;;;;2.12;99.41;99765.81;4150026;28;20080;-70
2021/10/10 09:06:40;;;;;;;19.48;11.88;;;;;;;2.18;99.30;99761.13;4151535;28;20053;-70
2021/10/10 09:08:40;;;;;;;20.05;12.55;;;;;;;2.25;99.64;99765.13;4139162;28;20568;-70
2021/10/10 09:10:41;;;;;;;20.70;14.20;;;;;;;2.28;99.67;99760.97;4151823;28;20761;-70
2021/10/10 09:12:41;;;;;;;20.25;12.07;;;;;;;2.40;98.73;99774.19;4150489;28;20049;-70
2021/10/10 09:14:49;;;;;;;22.33;12.43;;;;;;;2.45;98.66;99758.56;4148689;28;20464;-70
2021/10/10 09:16:49;;;;;;;18.13;10.85;;;;;;;2.49;98.87;99758.81;4150457;28;20089;-70
2021/10/10 09:18:49;;;;;;;17.90;10.50;;;;;;;2.60;97.97;99765.75;4124433;28;20069;-70
2021/10/10 09:20:50;;;;;;;22.80;12.00;;;;;;;2.74;95.30;99763.13;4149690;28;20259;-70